Time;durP1;ratioP1;P1;durP2;ratioP2;P2;SDS_P1;SDS_P2;PMS_P1;PMS_P2;Temp;Humidity;BMP_temperature;BMP_pressure;BME280_temperature;BME280_humidity;BME280_pressure;Samples;Min_cycle;Max_cycle;Signal;HPM_P1;HPM_P2
2023/06/28 00:01:02;;;;;;;;;;;25.80;34.40;;;;;;1501284;77;1562;-75
2023/06/28 00:03:09;;;;;;;;;;;25.70;34.40;;;;;;1509070;77;1936;-74
2023/06/28 00:05:08;;;;;;;;;;;25.80;34.30;;;;;;1496672;77;1156;-75
2023/06/28 00:07:11;;;;;;;;;;;25.80;34.30;;;;;;1500975;77;659;-74
2023/06/28 00:09:12;;;;;;;;;;;25.80;34.30;;;;;;1511255;77;1180;-71
2023/06/28 00:11:14;;;;;;;;;;;25.80;34.20;;;;;;1512422;77;729;-75
2023/06/28 00:13:16;;;;;;;;;;;25.80;34.20;;;;;;1502901;77;750;-75
2023/06/28 00:15:18;;;;;;;;;;;25.80;34.30;;;;;;1506911;77;1513;-75
2023/06/28 00:17:27;;;;;;;;;;;25.80;34.20;;;;;;1514029;77;691;-71
2023/06/28 00:19:26;;;;;;;;;;;25.80;34.20;;;;;;1517671;77;1631;-74
2023/06/28 00:21:28;;;;;;;;;;;25.80;34.20;;;;;;1504213;77;748;-73
2023/06/28 00:23:30;;;;;;;;;;;25.80;34.20;;;;;;1513742;77;1944;-74
2023/06/28 00:25:32;;;;;;;;;;;25.80;34.40;;;;;;1516297;77;702;-74
2023/06/28 00:27:34;;;;;;;;;;;25.80;34.70;;;;;;1501867;77;672;-74
2023/06/28 00:29:36;;;;;;;;;;;25.70;34.80;;;;;;1516350;77;1581;-76
2023/06/28 00:31:37;;;;;;;;;;;25.70;34.80;;;;;;1508749;77;714;-72
2023/06/28 00:33:41;;;;;;;;;;;25.70;34.90;;;;;;1509174;77;649;-72
2023/06/28 00:35:43;;;;;;;;;;;25.70;34.90;;;;;;1503035;77;799;-72
2023/06/28 00:37:44;;;;;;;;;;;25.60;35.00;;;;;;1510076;77;673;-72
2023/06/28 00:39:46;;;;;;;;;;;25.70;35.00;;;;;;1503217;77;1171;-74
2023/06/28 00:41:48;;;;;;;;;;;25.60;35.00;;;;;;1505048;77;826;-72
2023/06/28 00:43:50;;;;;;;;;;;25.70;35.00;;;;;;1513904;77;1943;-70
2023/06/28 00:45:52;;;;;;;;;;;25.70;35.00;;;;;;1506610;77;728;-74
2023/06/28 00:47:54;;;;;;;;;;;25.70;35.00;;;;;;1502309;77;790;-74
2023/06/28 00:49:56;;;;;;;;;;;25.70;35.10;;;;;;1506105;76;1137;-73
2023/06/28 00:51:58;;;;;;;;;;;25.70;35.00;;;;;;1504749;77;734;-74
2023/06/28 00:54:00;;;;;;;;;;;25.70;34.90;;;;;;1512010;77;733;-75
2023/06/28 00:56:02;;;;;;;;;;;25.70;34.70;;;;;;1510179;77;704;-75
2023/06/28 00:58:04;;;;;;;;;;;25.70;34.70;;;;;;1508092;77;1539;-76
2023/06/28 01:00:11;;;;;;;;;;;25.80;34.70;;;;;;1505423;77;1156;-74
2023/06/28 01:02:10;;;;;;;;;;;25.70;34.70;;;;;;1510307;77;1612;-73
2023/06/28 01:04:13;;;;;;;;;;;25.70;34.70;;;;;;1488399;77;1930;-73
2023/06/28 01:06:15;;;;;;;;;;;25.70;34.70;;;;;;1505569;77;716;-75
2023/06/28 01:08:17;;;;;;;;;;;25.70;34.70;;;;;;1516531;76;1157;-73
2023/06/28 01:10:19;;;;;;;;;;;25.70;34.80;;;;;;1515223;77;789;-72
2023/06/28 01:12:20;;;;;;;;;;;25.70;35.20;;;;;;1511328;77;1585;-72
2023/06/28 01:14:23;;;;;;;;;;;25.70;35.20;;;;;;1495188;77;666;-72
2023/06/28 01:16:25;;;;;;;;;;;25.70;35.30;;;;;;1506122;77;709;-73
2023/06/28 01:18:26;;;;;;;;;;;25.70;35.20;;;;;;1493097;77;1181;-72
2023/06/28 01:20:30;;;;;;;;;;;25.70;35.20;;;;;;1501980;77;682;-72
2023/06/28 01:22:32;;;;;;;;;;;25.70;35.20;;;;;;1516303;77;627;-74
2023/06/28 01:24:36;;;;;;;;;;;25.80;35.20;;;;;;1512471;77;1935;-72
2023/06/28 01:26:38;;;;;;;;;;;25.70;35.20;;;;;;1497171;77;1496;-73
2023/06/28 01:28:40;;;;;;;;;;;25.80;35.20;;;;;;1501610;77;1132;-73
2023/06/28 01:30:42;;;;;;;;;;;25.80;35.40;;;;;;1514459;77;740;-74
2023/06/28 01:32:44;;;;;;;;;;;25.80;35.50;;;;;;1515321;77;764;-72
2023/06/28 01:34:45;;;;;;;;;;;25.80;35.50;;;;;;1506512;77;721;-73
2023/06/28 01:36:47;;;;;;;;;;;25.80;35.40;;;;;;1511528;77;726;-74
2023/06/28 01:38:49;;;;;;;;;;;25.90;35.40;;;;;;1510194;77;1143;-73
2023/06/28 01:40:51;;;;;;;;;;;25.80;35.50;;;;;;1504066;77;1584;-71
2023/06/28 01:42:53;;;;;;;;;;;25.70;35.70;;;;;;1506234;77;768;-71
2023/06/28 01:44:55;;;;;;;;;;;25.80;35.60;;;;;;1512772;77;1945;-73
2023/06/28 01:46:57;;;;;;;;;;;25.80;35.60;;;;;;1506574;77;750;-71
2023/06/28 01:48:59;;;;;;;;;;;25.80;35.50;;;;;;1499949;76;1150;-74
2023/06/28 01:51:01;;;;;;;;;;;25.80;35.50;;;;;;1505864;77;783;-74
2023/06/28 01:53:03;;;;;;;;;;;25.80;35.50;;;;;;1510829;77;1506;-74
2023/06/28 01:55:05;;;;;;;;;;;25.80;35.50;;;;;;1509953;77;678;-72
2023/06/28 01:57:07;;;;;;;;;;;25.70;35.60;;;;;;1513590;77;720;-72
2023/06/28 01:59:09;;;;;;;;;;;25.80;35.50;;;;;;1496399;77;1081;-72
2023/06/28 02:01:11;;;;;;;;;;;25.80;35.60;;;;;;1507896;77;682;-74
2023/06/28 02:03:13;;;;;;;;;;;25.80;35.70;;;;;;1509719;77;764;-72
2023/06/28 02:05:15;;;;;;;;;;;25.80;35.70;;;;;;1498663;77;1947;-70
2023/06/28 02:07:17;;;;;;;;;;;25.70;35.70;;;;;;1514859;77;1566;-71
2023/06/28 02:09:19;;;;;;;;;;;25.80;35.70;;;;;;1507093;77;1163;-72
2023/06/28 02:11:20;;;;;;;;;;;25.80;35.70;;;;;;1503770;77;757;-72
2023/06/28 02:13:22;;;;;;;;;;;25.80;35.70;;;;;;1508514;77;721;-71
2023/06/28 02:15:24;;;;;;;;;;;25.80;35.70;;;;;;1517373;77;842;-71
2023/06/28 02:17:26;;;;;;;;;;;25.80;35.80;;;;;;1506609;77;751;-73
2023/06/28 02:19:33;;;;;;;;;;;25.80;35.70;;;;;;1507857;77;1186;-72
2023/06/28 02:21:31;;;;;;;;;;;25.80;35.80;;;;;;1504419;77;1614;-71
2023/06/28 02:23:33;;;;;;;;;;;25.80;35.80;;;;;;1519716;77;1923;-72
2023/06/28 02:25:35;;;;;;;;;;;25.80;35.70;;;;;;1498974;77;656;-73
2023/06/28 02:27:38;;;;;;;;;;;25.80;35.80;;;;;;1520134;77;786;-72
2023/06/28 02:29:39;;;;;;;;;;;25.80;35.90;;;;;;1510623;76;1106;-74
2023/06/28 02:31:41;;;;;;;;;;;25.70;35.90;;;;;;1506696;77;761;-74
2023/06/28 02:33:43;;;;;;;;;;;25.80;35.90;;;;;;1511538;77;744;-73
2023/06/28 02:35:45;;;;;;;;;;;25.70;36.00;;;;;;1506527;77;1464;-74
2023/06/28 02:37:47;;;;;;;;;;;25.70;36.20;;;;;;1497728;77;736;-73
2023/06/28 02:39:49;;;;;;;;;;;25.60;36.30;;;;;;1503415;77;1139;-73
2023/06/28 02:41:51;;;;;;;;;;;25.60;36.30;;;;;;1517542;77;717;-74
2023/06/28 02:43:53;;;;;;;;;;;25.60;36.50;;;;;;1507934;77;1929;-74
2023/06/28 02:45:54;;;;;;;;;;;25.70;36.40;;;;;;1501771;77;657;-75
2023/06/28 02:47:56;;;;;;;;;;;25.70;36.50;;;;;;1491048;77;820;-72
2023/06/28 02:50:04;;;;;;;;;;;25.60;36.70;;;;;;1510293;77;1559;-73
2023/06/28 02:52:02;;;;;;;;;;;25.50;36.80;;;;;;1490395;77;1851;-74
2023/06/28 02:54:03;;;;;;;;;;;25.60;37.00;;;;;;1500142;77;725;-73
2023/06/28 02:56:05;;;;;;;;;;;25.60;37.00;;;;;;1503708;77;782;-74
2023/06/28 02:58:07;;;;;;;;;;;25.50;36.90;;;;;;1504015;77;758;-72
2023/06/28 03:00:09;;;;;;;;;;;25.60;36.90;;;;;;1490645;77;1108;-73
2023/06/28 03:02:11;;;;;;;;;;;25.60;36.80;;;;;;1497829;77;799;-77
2023/06/28 03:04:13;;;;;;;;;;;25.60;37.10;;;;;;1482707;78;1946;-75
2023/06/28 03:06:15;;;;;;;;;;;25.60;36.80;;;;;;1504403;77;608;-74
2023/06/28 03:08:17;;;;;;;;;;;25.60;36.80;;;;;;1517558;77;1178;-74
2023/06/28 03:10:19;;;;;;;;;;;25.60;36.80;;;;;;1515854;77;756;-75
2023/06/28 03:12:21;;;;;;;;;;;25.70;36.70;;;;;;1511126;77;717;-75
2023/06/28 03:14:22;;;;;;;;;;;25.70;36.60;;;;;;1500953;77;737;-78
2023/06/28 03:16:24;;;;;;;;;;;25.70;36.80;;;;;;1509335;77;738;-78
2023/06/28 03:18:26;;;;;;;;;;;25.70;36.60;;;;;;1520652;77;1537;-77
2023/06/28 03:20:28;;;;;;;;;;;25.60;36.70;;;;;;1506915;77;625;-78
2023/06/28 03:22:30;;;;;;;;;;;25.60;36.80;;;;;;1501369;77;756;-77
2023/06/28 03:24:32;;;;;;;;;;;25.60;36.90;;;;;;1511413;77;1939;-77
2023/06/28 03:26:34;;;;;;;;;;;25.50;37.00;;;;;;1500056;77;757;-77
2023/06/28 03:28:35;;;;;;;;;;;25.50;37.00;;;;;;1513006;77;1214;-78
2023/06/28 03:30:37;;;;;;;;;;;25.60;37.10;;;;;;1504460;77;765;-77
2023/06/28 03:32:39;;;;;;;;;;;25.60;37.10;;;;;;1520951;77;1548;-74
2023/06/28 03:34:41;;;;;;;;;;;25.60;37.00;;;;;;1514963;77;759;-74
2023/06/28 03:36:43;;;;;;;;;;;25.60;37.20;;;;;;1505816;77;736;-74
2023/06/28 03:38:45;;;;;;;;;;;25.50;37.20;;;;;;1517017;77;1221;-74
2023/06/28 03:40:47;;;;;;;;;;;25.50;37.20;;;;;;1508738;77;689;-73
2023/06/28 03:42:49;;;;;;;;;;;25.60;37.30;;;;;;1520892;77;787;-75
2023/06/28 03:44:51;;;;;;;;;;;25.60;37.30;;;;;;1498820;77;1937;-70
2023/06/28 03:46:52;;;;;;;;;;;25.50;37.30;;;;;;1500267;77;1463;-73
2023/06/28 03:48:54;;;;;;;;;;;25.50;37.30;;;;;;1499976;77;1159;-73
2023/06/28 03:50:56;;;;;;;;;;;25.60;37.30;;;;;;1504880;77;715;-73
2023/06/28 03:52:58;;;;;;;;;;;25.60;37.30;;;;;;1496686;77;728;-73
2023/06/28 03:55:00;;;;;;;;;;;25.50;37.30;;;;;;1507157;77;643;-73
2023/06/28 03:57:02;;;;;;;;;;;25.60;37.30;;;;;;1512521;77;741;-71
2023/06/28 03:59:04;;;;;;;;;;;25.60;37.20;;;;;;1513572;77;1146;-74
2023/06/28 04:01:06;;;;;;;;;;;25.50;37.30;;;;;;1496249;77;1439;-73
2023/06/28 04:03:07;;;;;;;;;;;25.60;37.40;;;;;;1495484;78;858;-73
2023/06/28 04:05:10;;;;;;;;;;;25.50;37.60;;;;;;1506399;77;1953;-71
2023/06/28 04:07:12;;;;;;;;;;;25.50;37.40;;;;;;1504759;77;737;-72
2023/06/28 04:09:15;;;;;;;;;;;25.60;37.40;;;;;;1503647;77;1178;-74
2023/06/28 04:11:17;;;;;;;;;;;25.50;37.40;;;;;;1510384;77;824;-73
2023/06/28 04:13:19;;;;;;;;;;;25.60;37.30;;;;;;1506700;77;691;-73
2023/06/28 04:15:21;;;;;;;;;;;25.50;37.40;;;;;;1515541;77;1544;-73
2023/06/28 04:17:23;;;;;;;;;;;25.60;37.40;;;;;;1513847;77;721;-72
2023/06/28 04:19:25;;;;;;;;;;;25.60;37.40;;;;;;1507734;77;1136;-74
2023/06/28 04:21:27;;;;;;;;;;;25.60;37.30;;;;;;1510200;77;734;-73
2023/06/28 04:23:29;;;;;;;;;;;25.60;37.30;;;;;;1511742;77;746;-74
2023/06/28 04:25:31;;;;;;;;;;;25.70;37.20;;;;;;1501972;77;1941;-76
2023/06/28 04:27:33;;;;;;;;;;;25.60;37.20;;;;;;1510645;77;713;-75
2023/06/28 04:29:35;;;;;;;;;;;25.60;37.20;;;;;;1517096;77;1696;-73
2023/06/28 04:31:36;;;;;;;;;;;25.70;37.20;;;;;;1514881;77;736;-74
2023/06/28 04:33:39;;;;;;;;;;;25.70;37.20;;;;;;1512536;77;754;-73
2023/06/28 04:35:44;;;;;;;;;;;25.70;37.20;;;;;;1500772;77;729;-73
2023/06/28 04:37:46;;;;;;;;;;;25.70;37.20;;;;;;1521956;77;1698;-73
2023/06/28 04:39:48;;;;;;;;;;;25.70;37.30;;;;;;1514741;77;1204;-73
2023/06/28 04:41:51;;;;;;;;;;;25.60;37.30;;;;;;1515294;77;1316;-72
2023/06/28 04:43:58;;;;;;;;;;;25.70;37.60;;;;;;1510249;77;818;-71
2023/06/28 04:45:59;;;;;;;;;;;25.60;37.40;;;;;;1507392;77;1925;-74
2023/06/28 04:48:01;;;;;;;;;;;25.70;37.50;;;;;;1497088;77;754;-75
2023/06/28 04:50:03;;;;;;;;;;;25.60;37.60;;;;;;1507522;77;1133;-74
2023/06/28 04:52:05;;;;;;;;;;;25.60;37.80;;;;;;1514112;77;679;-74
2023/06/28 04:54:07;;;;;;;;;;;25.60;37.80;;;;;;1511905;77;716;-74
2023/06/28 04:56:09;;;;;;;;;;;25.60;37.60;;;;;;1514201;77;1539;-75
2023/06/28 04:58:11;;;;;;;;;;;25.50;37.70;;;;;;1500295;77;1189;-74
2023/06/28 05:00:13;;;;;;;;;;;25.50;37.80;;;;;;1504021;77;731;-73
2023/06/28 05:02:15;;;;;;;;;;;25.40;37.90;;;;;;1508549;77;675;-74
2023/06/28 05:04:17;;;;;;;;;;;25.40;37.80;;;;;;1500844;77;862;-75
2023/06/28 05:06:19;;;;;;;;;;;25.50;37.90;;;;;;1508415;77;1922;-75
2023/06/28 05:08:21;;;;;;;;;;;25.30;37.90;;;;;;1508847;77;1231;-75
2023/06/28 05:10:24;;;;;;;;;;;25.40;37.90;;;;;;1515031;77;1511;-74
2023/06/28 05:12:25;;;;;;;;;;;25.40;37.90;;;;;;1502350;77;722;-74
2023/06/28 05:14:28;;;;;;;;;;;25.30;37.90;;;;;;1494783;77;742;-70
2023/06/28 05:16:30;;;;;;;;;;;25.30;38.00;;;;;;1517158;77;767;-75
2023/06/28 05:18:32;;;;;;;;;;;25.20;38.20;;;;;;1506862;77;1198;-75
2023/06/28 05:20:34;;;;;;;;;;;25.20;38.20;;;;;;1503190;77;628;-75
2023/06/28 05:22:37;;;;;;;;;;;25.20;38.10;;;;;;1508863;77;667;-75
2023/06/28 05:24:39;;;;;;;;;;;25.30;38.10;;;;;;1507574;77;1953;-75
2023/06/28 05:26:41;;;;;;;;;;;25.30;38.10;;;;;;1509635;77;822;-78
2023/06/28 05:28:43;;;;;;;;;;;25.30;38.10;;;;;;1507113;77;1285;-75
2023/06/28 05:30:45;;;;;;;;;;;25.30;38.20;;;;;;1520055;77;1076;-74
2023/06/28 05:32:46;;;;;;;;;;;25.30;38.30;;;;;;1506778;77;668;-74
2023/06/28 05:34:48;;;;;;;;;;;25.20;38.20;;;;;;1499252;77;697;-72
2023/06/28 05:36:50;;;;;;;;;;;25.20;38.20;;;;;;1509281;77;730;-78
2023/06/28 05:38:52;;;;;;;;;;;25.30;38.40;;;;;;1505525;77;1560;-75
2023/06/28 05:40:59;;;;;;;;;;;25.20;38.40;;;;;;1511841;77;739;-77
2023/06/28 05:42:58;;;;;;;;;;;25.20;38.40;;;;;;1508848;77;1298;-73
2023/06/28 05:45:00;;;;;;;;;;;25.30;38.40;;;;;;1499802;77;1950;-75
2023/06/28 05:47:02;;;;;;;;;;;25.20;38.40;;;;;;1509720;77;790;-77
2023/06/28 05:49:10;;;;;;;;;;;25.20;38.40;;;;;;1510623;77;1152;-76
2023/06/28 05:51:13;;;;;;;;;;;25.30;38.40;;;;;;1510242;77;790;-75
2023/06/28 05:53:15;;;;;;;;;;;25.20;38.40;;;;;;1514538;77;1575;-75
2023/06/28 05:55:17;;;;;;;;;;;25.20;38.40;;;;;;1506915;77;809;-75
2023/06/28 05:57:19;;;;;;;;;;;25.20;38.40;;;;;;1495119;77;816;-75
2023/06/28 05:59:21;;;;;;;;;;;25.10;38.50;;;;;;1515816;77;1123;-74
2023/06/28 06:01:23;;;;;;;;;;;25.20;38.60;;;;;;1499410;77;674;-74
2023/06/28 06:03:25;;;;;;;;;;;25.10;38.50;;;;;;1512012;77;782;-74
2023/06/28 06:05:27;;;;;;;;;;;25.10;38.50;;;;;;1507475;77;1950;-72
2023/06/28 06:07:29;;;;;;;;;;;25.10;38.50;;;;;;1499073;77;1347;-74
2023/06/28 06:09:31;;;;;;;;;;;25.10;38.50;;;;;;1505624;77;1207;-73
2023/06/28 06:11:33;;;;;;;;;;;25.10;38.50;;;;;;1501519;77;676;-74
2023/06/28 06:13:35;;;;;;;;;;;25.10;38.50;;;;;;1513140;77;712;-77
2023/06/28 06:15:36;;;;;;;;;;;25.10;38.60;;;;;;1520434;77;765;-74
2023/06/28 06:17:38;;;;;;;;;;;25.10;38.50;;;;;;1502676;77;715;-72
2023/06/28 06:19:40;;;;;;;;;;;25.10;38.60;;;;;;1506213;76;1171;-73
2023/06/28 06:21:42;;;;;;;;;;;25.10;38.60;;;;;;1514040;77;1508;-74
2023/06/28 06:23:44;;;;;;;;;;;25.10;38.50;;;;;;1506510;77;757;-74
2023/06/28 06:25:46;;;;;;;;;;;25.10;38.50;;;;;;1508513;77;1938;-73
2023/06/28 06:27:48;;;;;;;;;;;25.10;38.50;;;;;;1511003;77;793;-73
2023/06/28 06:29:51;;;;;;;;;;;25.00;38.90;;;;;;1500999;77;1153;-72
2023/06/28 06:31:53;;;;;;;;;;;25.00;38.90;;;;;;1503362;77;716;-72
2023/06/28 06:34:00;;;;;;;;;;;25.00;39.00;;;;;;1502192;77;634;-72
2023/06/28 06:35:59;;;;;;;;;;;25.00;39.10;;;;;;1514492;77;1884;-70
2023/06/28 06:38:00;;;;;;;;;;;24.90;39.20;;;;;;1522639;77;755;-73
2023/06/28 06:40:02;;;;;;;;;;;24.90;39.30;;;;;;1529361;76;1107;-74
2023/06/28 06:42:04;;;;;;;;;;;25.00;39.50;;;;;;1508632;77;762;-75
2023/06/28 06:44:06;;;;;;;;;;;24.80;39.40;;;;;;1497502;77;824;-74
2023/06/28 06:46:08;;;;;;;;;;;24.90;39.50;;;;;;1501919;77;1939;-74
2023/06/28 06:48:10;;;;;;;;;;;24.90;39.50;;;;;;1505685;77;752;-72
2023/06/28 06:50:13;;;;;;;;;;;25.00;39.50;;;;;;1505437;77;1551;-71
2023/06/28 06:52:15;;;;;;;;;;;25.00;39.50;;;;;;1503052;77;647;-73
2023/06/28 06:54:17;;;;;;;;;;;24.90;39.60;;;;;;1507717;77;831;-74
2023/06/28 06:56:22;;;;;;;;;;;24.90;39.70;;;;;;1503963;77;765;-71
2023/06/28 06:58:24;;;;;;;;;;;24.90;39.80;;;;;;1511637;77;1157;-74
2023/06/28 07:00:26;;;;;;;;;;;24.80;39.70;;;;;;1507167;77;743;-75
2023/06/28 07:02:28;;;;;;;;;;;24.90;39.80;;;;;;1511407;77;1545;-74
2023/06/28 07:04:30;;;;;;;;;;;24.90;39.90;;;;;;1510492;77;720;-73
2023/06/28 07:06:31;;;;;;;;;;;24.80;39.90;;;;;;1507865;77;1935;-73
2023/06/28 07:08:34;;;;;;;;;;;24.80;40.00;;;;;;1504066;77;1103;-74
2023/06/28 07:10:35;;;;;;;;;;;24.80;40.00;;;;;;1504768;77;776;-71
2023/06/28 07:12:37;;;;;;;;;;;24.80;40.00;;;;;;1503623;77;705;-72
2023/06/28 07:14:39;;;;;;;;;;;24.70;40.10;;;;;;1491929;77;749;-74
2023/06/28 07:16:45;;;;;;;;;;;24.80;40.20;;;;;;1502569;77;1557;-74
2023/06/28 07:18:45;;;;;;;;;;;24.80;40.10;;;;;;1507933;77;1222;-73
2023/06/28 07:20:47;;;;;;;;;;;24.80;40.20;;;;;;1507839;77;786;-73
2023/06/28 07:22:48;;;;;;;;;;;24.70;40.20;;;;;;1504079;77;715;-75
2023/06/28 07:24:50;;;;;;;;;;;24.80;40.20;;;;;;1506933;77;669;-74
2023/06/28 07:26:52;;;;;;;;;;;24.80;40.10;;;;;;1495095;77;1959;-73
2023/06/28 07:28:54;;;;;;;;;;;24.80;40.10;;;;;;1507791;77;1159;-74
2023/06/28 07:30:58;;;;;;;;;;;24.80;40.20;;;;;;1505351;77;1564;-72
2023/06/28 07:33:00;;;;;;;;;;;24.70;40.20;;;;;;1514104;77;1637;-74
2023/06/28 07:35:02;;;;;;;;;;;24.70;40.20;;;;;;1500334;77;789;-73
2023/06/28 07:37:06;;;;;;;;;;;24.80;40.20;;;;;;1521078;77;743;-73
2023/06/28 07:39:09;;;;;;;;;;;24.80;40.30;;;;;;1508522;77;1151;-73
2023/06/28 07:41:11;;;;;;;;;;;24.70;40.20;;;;;;1511808;77;676;-72
2023/06/28 07:43:13;;;;;;;;;;;24.80;40.20;;;;;;1513715;77;725;-74
2023/06/28 07:45:15;;;;;;;;;;;24.70;40.30;;;;;;1492453;77;1533;-74
2023/06/28 07:47:17;;;;;;;;;;;24.80;40.20;;;;;;1502542;77;1934;-69
2023/06/28 07:49:19;;;;;;;;;;;24.70;40.20;;;;;;1499214;77;1169;-72
2023/06/28 07:51:20;;;;;;;;;;;24.80;40.00;;;;;;1499719;77;782;-73
2023/06/28 07:53:22;;;;;;;;;;;24.80;40.00;;;;;;1503640;77;741;-73
2023/06/28 07:55:24;;;;;;;;;;;24.80;40.00;;;;;;1507093;77;795;-74
2023/06/28 07:57:26;;;;;;;;;;;24.80;39.80;;;;;;1494458;77;766;-70
2023/06/28 07:59:28;;;;;;;;;;;24.70;39.90;;;;;;1514639;76;1623;-73
2023/06/28 08:01:32;;;;;;;;;;;24.70;40.00;;;;;;1515467;77;732;-74
2023/06/28 08:03:33;;;;;;;;;;;24.70;40.00;;;;;;1502314;77;1689;-74
2023/06/28 08:05:35;;;;;;;;;;;24.70;40.00;;;;;;1504957;77;1931;-74
2023/06/28 08:07:37;;;;;;;;;;;24.70;40.00;;;;;;1505174;77;792;-73
2023/06/28 08:09:39;;;;;;;;;;;24.70;40.00;;;;;;1504893;77;1140;-71
2023/06/28 08:11:41;;;;;;;;;;;24.70;40.20;;;;;;1509090;77;707;-72
2023/06/28 08:13:43;;;;;;;;;;;24.70;40.40;;;;;;1511504;77;1371;-72
2023/06/28 08:15:44;;;;;;;;;;;24.70;40.50;;;;;;1514077;77;816;-73
2023/06/28 08:17:48;;;;;;;;;;;24.70;40.40;;;;;;1512186;77;753;-72
2023/06/28 08:19:50;;;;;;;;;;;24.70;40.30;;;;;;1496746;77;1518;-72
2023/06/28 08:21:52;;;;;;;;;;;24.70;40.30;;;;;;1506019;77;829;-73
2023/06/28 08:23:54;;;;;;;;;;;24.70;40.40;;;;;;1513838;77;719;-69
2023/06/28 08:25:56;;;;;;;;;;;24.70;40.30;;;;;;1505346;77;1946;-73
2023/06/28 08:27:58;;;;;;;;;;;24.70;40.10;;;;;;1501983;77;1604;-73
2023/06/28 08:29:59;;;;;;;;;;;24.80;40.00;;;;;;1498693;77;1134;-72
2023/06/28 08:32:02;;;;;;;;;;;24.80;39.80;;;;;;1507077;77;847;-73
2023/06/28 08:34:03;;;;;;;;;;;24.80;40.00;;;;;;1503401;77;763;-74
2023/06/28 08:36:05;;;;;;;;;;;24.80;40.00;;;;;;1516882;77;741;-74
2023/06/28 08:38:07;;;;;;;;;;;24.80;40.20;;;;;;1512624;77;826;-74
2023/06/28 08:40:09;;;;;;;;;;;24.80;39.90;;;;;;1516196;77;1210;-70
2023/06/28 08:42:11;;;;;;;;;;;24.90;40.10;;;;;;1504131;77;1699;-74
2023/06/28 08:44:13;;;;;;;;;;;24.80;40.00;;;;;;1500579;77;744;-74
2023/06/28 08:46:15;;;;;;;;;;;24.80;40.10;;;;;;1512231;77;1951;-73
2023/06/28 08:48:17;;;;;;;;;;;24.80;40.00;;;;;;1508912;77;1206;-72
2023/06/28 08:50:19;;;;;;;;;;;24.80;40.20;;;;;;1507090;77;730;-73
2023/06/28 08:52:21;;;;;;;;;;;24.80;40.10;;;;;;1514441;77;758;-73
2023/06/28 08:54:23;;;;;;;;;;;24.80;40.30;;;;;;1506519;77;746;-74
2023/06/28 08:56:31;;;;;;;;;;;24.80;40.30;;;;;;1508810;77;1520;-73
2023/06/28 08:58:30;;;;;;;;;;;24.80;40.50;;;;;;1501519;77;1186;-73
2023/06/28 09:00:32;;;;;;;;;;;24.90;40.40;;;;;;1499959;77;799;-76
2023/06/28 09:02:35;;;;;;;;;;;24.80;40.10;;;;;;1506791;77;715;-73
2023/06/28 09:04:37;;;;;;;;;;;24.80;40.30;;;;;;1492002;77;725;-74
2023/06/28 09:06:39;;;;;;;;;;;24.80;40.20;;;;;;1505732;77;1924;-74
2023/06/28 09:08:41;;;;;;;;;;;25.00;40.40;;;;;;1504196;77;1173;-73
2023/06/28 09:10:43;;;;;;;;;;;24.90;40.20;;;;;;1514363;77;1539;-72
2023/06/28 09:12:45;;;;;;;;;;;25.00;40.00;;;;;;1491192;77;806;-71
2023/06/28 09:14:47;;;;;;;;;;;24.90;40.00;;;;;;1512713;77;721;-76
2023/06/28 09:16:49;;;;;;;;;;;25.00;40.00;;;;;;1499594;77;847;-73
2023/06/28 09:18:52;;;;;;;;;;;25.00;40.00;;;;;;1511986;77;1252;-73
2023/06/28 09:20:54;;;;;;;;;;;25.00;39.90;;;;;;1504351;77;708;-73
2023/06/28 09:22:56;;;;;;;;;;;25.10;39.80;;;;;;1500957;77;734;-76
2023/06/28 09:25:00;;;;;;;;;;;25.20;39.60;;;;;;1518601;77;1395;-74
2023/06/28 09:27:02;;;;;;;;;;;25.10;39.60;;;;;;1513100;77;1933;-74
2023/06/28 09:29:06;;;;;;;;;;;25.10;39.50;;;;;;1513964;77;1112;-74
2023/06/28 09:31:08;;;;;;;;;;;25.10;39.30;;;;;;1514606;77;957;-74
2023/06/28 09:33:10;;;;;;;;;;;25.20;38.90;;;;;;1501590;77;751;-76
2023/06/28 09:35:12;;;;;;;;;;;25.20;38.60;;;;;;1508580;77;651;-74
2023/06/28 09:37:13;;;;;;;;;;;25.20;38.40;;;;;;1518798;77;1559;-72
2023/06/28 09:39:15;;;;;;;;;;;25.30;38.30;;;;;;1500624;77;1206;-73
2023/06/28 09:41:17;;;;;;;;;;;25.40;38.10;;;;;;1498345;77;756;-74
2023/06/28 09:43:19;;;;;;;;;;;25.30;38.00;;;;;;1515286;77;706;-74
2023/06/28 09:45:25;;;;;;;;;;;25.40;37.80;;;;;;1509481;77;726;-73
2023/06/28 09:47:32;;;;;;;;;;;25.30;37.70;;;;;;1506175;77;1923;-74
2023/06/28 09:49:34;;;;;;;;;;;25.40;37.70;;;;;;1497576;77;1097;-71
2023/06/28 09:51:36;;;;;;;;;;;25.40;37.60;;;;;;1508153;77;1294;-72
2023/06/28 09:54:19;;;;;;;;;;;25.40;37.10;;;;;;1597577;72;561;-58
2023/06/28 09:56:21;;;;;;;;;;;25.50;36.90;;;;;;1574000;74;722;-58
2023/06/28 09:58:23;;;;;;;;;;;25.40;36.80;;;;;;1566801;74;1147;-58
2023/06/28 10:00:25;;;;;;;;;;;25.20;36.80;;;;;;1575780;74;725;-59
2023/06/28 10:02:27;;;;;;;;;;;25.10;37.00;;;;;;1581508;74;720;-60
2023/06/28 10:04:29;;;;;;;;;;;25.10;37.30;;;;;;1580474;74;758;-59
2023/06/28 10:06:30;;;;;;;;;;;25.10;37.30;;;;;;1571608;74;1549;-58
2023/06/28 10:08:32;;;;;;;;;;;25.20;37.10;;;;;;1572296;74;1153;-60
2023/06/28 10:10:34;;;;;;;;;;;25.30;37.10;;;;;;1569846;74;755;-61
2023/06/28 10:12:36;;;;;;;;;;;25.10;36.90;;;;;;1569529;74;1899;-61
2023/06/28 10:14:39;;;;;;;;;;;25.10;37.10;;;;;;1574194;74;726;-61
2023/06/28 10:16:41;;;;;;;;;;;25.10;36.90;;;;;;1565768;74;687;-61
2023/06/28 10:18:43;;;;;;;;;;;25.10;36.70;;;;;;1575648;74;1147;-60
2023/06/28 10:20:45;;;;;;;;;;;25.20;36.80;;;;;;1564509;74;1492;-61
2023/06/28 10:22:47;;;;;;;;;;;25.10;36.80;;;;;;1567070;74;695;-59
2023/06/28 10:24:48;;;;;;;;;;;25.30;36.80;;;;;;1574400;74;824;-61
2023/06/28 10:26:50;;;;;;;;;;;25.20;36.80;;;;;;1584716;74;675;-60
2023/06/28 10:28:54;;;;;;;;;;;25.20;36.80;;;;;;1586517;74;1213;-58
2023/06/28 10:30:55;;;;;;;;;;;25.20;36.10;;;;;;1573176;74;704;-61
2023/06/28 10:32:58;;;;;;;;;;;25.10;36.30;;;;;;1583776;74;1933;-60
2023/06/28 10:34:59;;;;;;;;;;;25.10;36.00;;;;;;1580876;74;1530;-61
2023/06/28 10:37:01;;;;;;;;;;;25.10;36.30;;;;;;1576336;74;747;-60
2023/06/28 10:39:03;;;;;;;;;;;25.10;36.30;;;;;;1567141;74;1180;-60
2023/06/28 10:41:05;;;;;;;;;;;25.10;36.50;;;;;;1557365;75;1125;-59
2023/06/28 10:43:07;;;;;;;;;;;25.10;35.60;;;;;;1573299;73;866;-58
2023/06/28 10:45:09;;;;;;;;;;;25.00;35.50;;;;;;1551462;75;1140;-58
2023/06/28 10:47:12;;;;;;;;;;;24.90;35.80;;;;;;1571725;74;793;-58
2023/06/28 10:49:13;;;;;;;;;;;24.80;36.00;;;;;;1575801;74;1574;-58
2023/06/28 10:51:17;;;;;;;;;;;24.90;36.10;;;;;;1581086;73;777;-59
2023/06/28 10:53:22;;;;;;;;;;;24.90;36.10;;;;;;1570562;74;1935;-59
2023/06/28 10:55:30;;;;;;;;;;;25.00;36.10;;;;;;1561339;75;760;-57
2023/06/28 10:57:39;;;;;;;;;;;25.00;36.00;;;;;;1563244;75;652;-59
2023/06/28 10:59:41;;;;;;;;;;;25.00;36.30;;;;;;1560915;75;1207;-58
2023/06/28 11:01:53;;;;;;;;;;;25.00;36.30;;;;;;1563116;75;1544;-59
2023/06/28 11:03:55;;;;;;;;;;;25.00;36.20;;;;;;1567614;74;737;-60
2023/06/28 11:05:57;;;;;;;;;;;25.00;36.30;;;;;;1528556;76;1126;-61
2023/06/28 11:08:01;;;;;;;;;;;24.90;36.50;;;;;;1557058;74;1157;-58
2023/06/28 11:10:14;;;;;;;;;;;24.90;36.50;;;;;;1555275;75;1034;-61
2023/06/28 11:12:16;;;;;;;;;;;24.90;36.50;;;;;;1577524;75;703;-62
2023/06/28 11:14:19;;;;;;;;;;;24.80;36.50;;;;;;1549776;76;1962;-60
2023/06/28 11:16:21;;;;;;;;;;;24.90;36.60;;;;;;1558891;74;1548;-59
2023/06/28 11:18:23;;;;;;;;;;;25.00;36.50;;;;;;1570062;75;1157;-60
2023/06/28 11:20:25;;;;;;;;;;;25.00;36.40;;;;;;1542998;76;1109;-58
2023/06/28 11:22:29;;;;;;;;;;;25.00;36.50;;;;;;1568553;75;749;-62
2023/06/28 11:24:35;;;;;;;;;;;25.00;36.50;;;;;;1551798;75;1847;-57
2023/06/28 11:26:37;;;;;;;;;;;25.00;36.40;;;;;;1561279;74;746;-61
2023/06/28 11:28:41;;;;;;;;;;;25.00;36.10;;;;;;1555017;75;1161;-61
2023/06/28 11:30:51;;;;;;;;;;;25.00;35.70;;;;;;1547759;75;1554;-59
2023/06/28 11:32:53;;;;;;;;;;;25.00;35.50;;;;;;1563847;75;1904;-58
2023/06/28 11:34:55;;;;;;;;;;;25.00;35.70;;;;;;1571192;75;731;-58
2023/06/28 11:36:57;;;;;;;;;;;25.00;35.70;;;;;;1577769;75;734;-58
2023/06/28 11:38:59;;;;;;;;;;;25.00;35.70;;;;;;1574504;75;1177;-57
2023/06/28 11:41:01;;;;;;;;;;;25.00;35.70;;;;;;1554157;75;695;-60
2023/06/28 11:43:03;;;;;;;;;;;25.00;35.80;;;;;;1567079;75;795;-58
2023/06/28 11:45:06;;;;;;;;;;;25.00;35.70;;;;;;1567431;74;1530;-61
2023/06/28 11:47:08;;;;;;;;;;;25.00;35.50;;;;;;1556076;74;744;-57
2023/06/28 11:49:10;;;;;;;;;;;25.00;35.20;;;;;;1567545;74;1150;-59
2023/06/28 11:51:12;;;;;;;;;;;24.90;35.30;;;;;;1552584;75;730;-60
2023/06/28 11:53:14;;;;;;;;;;;24.90;35.40;;;;;;1553595;75;1930;-60
2023/06/28 11:55:16;;;;;;;;;;;24.90;35.40;;;;;;1593616;74;1060;-59
2023/06/28 11:57:18;;;;;;;;;;;24.90;35.50;;;;;;1581378;74;748;-58
2023/06/28 11:59:20;;;;;;;;;;;25.00;35.40;;;;;;1573244;74;1614;-62
2023/06/28 12:01:22;;;;;;;;;;;25.00;35.50;;;;;;1586914;74;674;-61
2023/06/28 12:03:32;;;;;;;;;;;25.00;35.50;;;;;;1574193;74;825;-58
2023/06/28 12:05:34;;;;;;;;;;;25.00;35.60;;;;;;1583944;74;760;-58
2023/06/28 12:07:36;;;;;;;;;;;25.00;35.80;;;;;;1585551;74;736;-59